sensor_id;sensor_type;location;lat;lon;timestamp;P1;durP1;ratioP1;P2;durP2;ratioP2
67757;SDS011;54562;47.620;18.786;2023-02-28T00:00:12;10.00;;;5.30;;
67757;SDS011;54562;47.620;18.786;2023-02-28T00:03:21;11.30;;;5.70;;
67757;SDS011;54562;47.620;18.786;2023-02-28T00:06:29;9.10;;;4.90;;
67757;SDS011;54562;47.620;18.786;2023-02-28T00:09:37;13.20;;;5.60;;
67757;SDS011;54562;47.620;18.786;2023-02-28T00:12:55;8.10;;;5.00;;
67757;SDS011;54562;47.620;18.786;2023-02-28T00:16:08;10.10;;;4.80;;
67757;SDS011;54562;47.620;18.786;2023-02-28T00:19:18;12.70;;;5.50;;
67757;SDS011;54562;47.620;18.786;2023-02-28T00:22:26;10.10;;;5.10;;
67757;SDS011;54562;47.620;18.786;2023-02-28T00:25:35;8.40;;;4.80;;
67757;SDS011;54562;47.620;18.786;2023-02-28T00:28:43;8.60;;;4.50;;
67757;SDS011;54562;47.620;18.786;2023-02-28T00:31:51;9.10;;;5.20;;
67757;SDS011;54562;47.620;18.786;2023-02-28T00:34:59;9.60;;;5.20;;
67757;SDS011;54562;47.620;18.786;2023-02-28T00:38:07;8.80;;;4.70;;
67757;SDS011;54562;47.620;18.786;2023-02-28T00:41:15;8.90;;;4.50;;
67757;SDS011;54562;47.620;18.786;2023-02-28T00:44:24;9.30;;;4.90;;
67757;SDS011;54562;47.620;18.786;2023-02-28T00:47:32;8.40;;;4.30;;
67757;SDS011;54562;47.620;18.786;2023-02-28T00:50:41;10.10;;;5.40;;
67757;SDS011;54562;47.620;18.786;2023-02-28T00:53:49;9.20;;;5.00;;
67757;SDS011;54562;47.620;18.786;2023-02-28T00:56:57;8.50;;;4.80;;
67757;SDS011;54562;47.620;18.786;2023-02-28T01:00:07;11.30;;;5.10;;
67757;SDS011;54562;47.620;18.786;2023-02-28T01:03:18;7.90;;;4.50;;
67757;SDS011;54562;47.620;18.786;2023-02-28T01:09:34;7.60;;;3.70;;
67757;SDS011;54562;47.620;18.786;2023-02-28T01:12:43;6.90;;;4.20;;
67757;SDS011;54562;47.620;18.786;2023-02-28T01:15:54;8.20;;;4.50;;
67757;SDS011;54562;47.620;18.786;2023-02-28T01:19:03;7.10;;;4.10;;
67757;SDS011;54562;47.620;18.786;2023-02-28T01:22:11;9.60;;;5.00;;
67757;SDS011;54562;47.620;18.786;2023-02-28T01:25:19;9.10;;;4.90;;
67757;SDS011;54562;47.620;18.786;2023-02-28T01:28:27;8.10;;;4.10;;
67757;SDS011;54562;47.620;18.786;2023-02-28T01:31:35;8.70;;;4.60;;
67757;SDS011;54562;47.620;18.786;2023-02-28T01:34:43;7.70;;;4.00;;
67757;SDS011;54562;47.620;18.786;2023-02-28T01:37:52;8.60;;;4.40;;
67757;SDS011;54562;47.620;18.786;2023-02-28T01:41:10;6.50;;;3.30;;
67757;SDS011;54562;47.620;18.786;2023-02-28T01:45:00;6.80;;;3.60;;
67757;SDS011;54562;47.620;18.786;2023-02-28T01:48:12;9.10;;;4.90;;
67757;SDS011;54562;47.620;18.786;2023-02-28T01:51:22;11.50;;;5.40;;
67757;SDS011;54562;47.620;18.786;2023-02-28T01:54:36;8.00;;;4.50;;
67757;SDS011;54562;47.620;18.786;2023-02-28T01:57:47;6.60;;;3.60;;
67757;SDS011;54562;47.620;18.786;2023-02-28T02:00:57;8.40;;;3.60;;
67757;SDS011;54562;47.620;18.786;2023-02-28T02:04:07;8.40;;;4.20;;
67757;SDS011;54562;47.620;18.786;2023-02-28T02:07:15;10.20;;;4.60;;
67757;SDS011;54562;47.620;18.786;2023-02-28T02:10:29;5.90;;;3.30;;
67757;SDS011;54562;47.620;18.786;2023-02-28T02:13:58;8.50;;;4.00;;
67757;SDS011;54562;47.620;18.786;2023-02-28T02:17:24;8.70;;;4.30;;
67757;SDS011;54562;47.620;18.786;2023-02-28T02:21:14;9.30;;;4.50;;
67757;SDS011;54562;47.620;18.786;2023-02-28T02:24:56;9.20;;;5.20;;
67757;SDS011;54562;47.620;18.786;2023-02-28T02:33:08;5.70;;;3.10;;
67757;SDS011;54562;47.620;18.786;2023-02-28T02:36:29;7.80;;;4.10;;
67757;SDS011;54562;47.620;18.786;2023-02-28T02:39:47;6.90;;;4.30;;
67757;SDS011;54562;47.620;18.786;2023-02-28T02:43:03;7.90;;;3.90;;
67757;SDS011;54562;47.620;18.786;2023-02-28T02:46:17;7.30;;;3.50;;
67757;SDS011;54562;47.620;18.786;2023-02-28T02:49:35;8.30;;;4.60;;
67757;SDS011;54562;47.620;18.786;2023-02-28T02:52:47;8.50;;;4.20;;
67757;SDS011;54562;47.620;18.786;2023-02-28T02:56:00;8.70;;;5.00;;
67757;SDS011;54562;47.620;18.786;2023-02-28T02:59:13;8.70;;;4.40;;
67757;SDS011;54562;47.620;18.786;2023-02-28T03:02:28;8.50;;;4.80;;
67757;SDS011;54562;47.620;18.786;2023-02-28T03:05:44;9.70;;;4.90;;
67757;SDS011;54562;47.620;18.786;2023-02-28T03:08:55;7.40;;;4.50;;
67757;SDS011;54562;47.620;18.786;2023-02-28T03:12:04;7.90;;;4.80;;
67757;SDS011;54562;47.620;18.786;2023-02-28T03:15:19;10.10;;;5.30;;
67757;SDS011;54562;47.620;18.786;2023-02-28T03:18:37;10.70;;;4.50;;
67757;SDS011;54562;47.620;18.786;2023-02-28T03:22:03;8.30;;;5.20;;
67757;SDS011;54562;47.620;18.786;2023-02-28T03:25:24;7.40;;;3.70;;
67757;SDS011;54562;47.620;18.786;2023-02-28T03:28:41;9.00;;;4.70;;
67757;SDS011;54562;47.620;18.786;2023-02-28T03:31:59;7.90;;;4.50;;
67757;SDS011;54562;47.620;18.786;2023-02-28T03:35:14;8.10;;;4.40;;
67757;SDS011;54562;47.620;18.786;2023-02-28T03:38:29;7.60;;;4.20;;
67757;SDS011;54562;47.620;18.786;2023-02-28T03:41:43;6.40;;;3.80;;
67757;SDS011;54562;47.620;18.786;2023-02-28T03:44:59;7.00;;;3.70;;
67757;SDS011;54562;47.620;18.786;2023-02-28T03:48:15;8.80;;;4.90;;
67757;SDS011;54562;47.620;18.786;2023-02-28T03:51:29;8.20;;;4.40;;
67757;SDS011;54562;47.620;18.786;2023-02-28T03:54:42;8.90;;;4.40;;
67757;SDS011;54562;47.620;18.786;2023-02-28T03:57:58;8.70;;;4.60;;
67757;SDS011;54562;47.620;18.786;2023-02-28T04:01:14;7.90;;;4.30;;
67757;SDS011;54562;47.620;18.786;2023-02-28T04:04:26;7.60;;;4.10;;
67757;SDS011;54562;47.620;18.786;2023-02-28T04:07:34;9.00;;;4.70;;
67757;SDS011;54562;47.620;18.786;2023-02-28T04:10:43;8.80;;;4.60;;
67757;SDS011;54562;47.620;18.786;2023-02-28T04:13:55;7.60;;;4.40;;
67757;SDS011;54562;47.620;18.786;2023-02-28T04:17:04;8.70;;;5.00;;
67757;SDS011;54562;47.620;18.786;2023-02-28T04:20:13;8.00;;;4.40;;
67757;SDS011;54562;47.620;18.786;2023-02-28T04:23:21;9.60;;;4.90;;
67757;SDS011;54562;47.620;18.786;2023-02-28T04:26:31;8.30;;;4.50;;
67757;SDS011;54562;47.620;18.786;2023-02-28T04:29:39;7.10;;;4.10;;
67757;SDS011;54562;47.620;18.786;2023-02-28T04:32:51;9.20;;;4.70;;
67757;SDS011;54562;47.620;18.786;2023-02-28T04:36:04;10.60;;;5.40;;
67757;SDS011;54562;47.620;18.786;2023-02-28T04:39:14;10.20;;;5.10;;
67757;SDS011;54562;47.620;18.786;2023-02-28T04:42:23;9.90;;;4.80;;
67757;SDS011;54562;47.620;18.786;2023-02-28T04:45:31;8.60;;;4.60;;
67757;SDS011;54562;47.620;18.786;2023-02-28T04:48:40;10.00;;;5.00;;
67757;SDS011;54562;47.620;18.786;2023-02-28T04:51:49;8.50;;;4.70;;
67757;SDS011;54562;47.620;18.786;2023-02-28T04:54:57;9.60;;;4.60;;
67757;SDS011;54562;47.620;18.786;2023-02-28T04:58:05;10.00;;;5.20;;
67757;SDS011;54562;47.620;18.786;2023-02-28T05:01:23;8.60;;;5.00;;
67757;SDS011;54562;47.620;18.786;2023-02-28T05:04:32;8.00;;;4.40;;
67757;SDS011;54562;47.620;18.786;2023-02-28T05:07:40;8.90;;;4.90;;
67757;SDS011;54562;47.620;18.786;2023-02-28T05:10:48;11.20;;;5.40;;
67757;SDS011;54562;47.620;18.786;2023-02-28T05:13:56;9.10;;;4.80;;
67757;SDS011;54562;47.620;18.786;2023-02-28T05:17:04;9.90;;;5.00;;
67757;SDS011;54562;47.620;18.786;2023-02-28T05:20:13;9.30;;;5.20;;
67757;SDS011;54562;47.620;18.786;2023-02-28T05:23:22;10.00;;;5.20;;
67757;SDS011;54562;47.620;18.786;2023-02-28T05:26:33;10.90;;;5.70;;
67757;SDS011;54562;47.620;18.786;2023-02-28T05:29:43;9.80;;;5.20;;
67757;SDS011;54562;47.620;18.786;2023-02-28T05:32:53;8.90;;;5.10;;
67757;SDS011;54562;47.620;18.786;2023-02-28T05:36:01;11.50;;;5.00;;
67757;SDS011;54562;47.620;18.786;2023-02-28T05:39:10;9.30;;;4.80;;
67757;SDS011;54562;47.620;18.786;2023-02-28T05:42:18;9.80;;;4.90;;
67757;SDS011;54562;47.620;18.786;2023-02-28T05:45:26;10.60;;;5.50;;
67757;SDS011;54562;47.620;18.786;2023-02-28T05:48:34;11.20;;;5.30;;
67757;SDS011;54562;47.620;18.786;2023-02-28T05:51:43;11.60;;;5.70;;
67757;SDS011;54562;47.620;18.786;2023-02-28T05:54:51;11.80;;;5.90;;
67757;SDS011;54562;47.620;18.786;2023-02-28T05:57:59;10.30;;;6.30;;
67757;SDS011;54562;47.620;18.786;2023-02-28T06:01:22;12.30;;;6.70;;
67757;SDS011;54562;47.620;18.786;2023-02-28T06:04:36;11.60;;;6.10;;
67757;SDS011;54562;47.620;18.786;2023-02-28T06:07:46;12.60;;;6.60;;
67757;SDS011;54562;47.620;18.786;2023-02-28T06:10:54;10.50;;;6.30;;
67757;SDS011;54562;47.620;18.786;2023-02-28T06:14:03;10.90;;;6.20;;
67757;SDS011;54562;47.620;18.786;2023-02-28T06:17:11;10.20;;;6.00;;
67757;SDS011;54562;47.620;18.786;2023-02-28T06:20:19;11.60;;;6.30;;
67757;SDS011;54562;47.620;18.786;2023-02-28T06:23:28;11.20;;;5.90;;
67757;SDS011;54562;47.620;18.786;2023-02-28T06:26:36;10.20;;;5.90;;
67757;SDS011;54562;47.620;18.786;2023-02-28T06:29:44;10.70;;;5.50;;
67757;SDS011;54562;47.620;18.786;2023-02-28T06:32:52;10.70;;;6.00;;
67757;SDS011;54562;47.620;18.786;2023-02-28T06:36:00;12.60;;;6.20;;
67757;SDS011;54562;47.620;18.786;2023-02-28T06:39:09;11.90;;;6.30;;
67757;SDS011;54562;47.620;18.786;2023-02-28T06:42:17;13.40;;;6.80;;
67757;SDS011;54562;47.620;18.786;2023-02-28T06:45:26;9.70;;;5.50;;
67757;SDS011;54562;47.620;18.786;2023-02-28T06:48:34;10.20;;;5.90;;
67757;SDS011;54562;47.620;18.786;2023-02-28T06:51:44;12.30;;;5.90;;
67757;SDS011;54562;47.620;18.786;2023-02-28T06:54:52;11.70;;;6.10;;
67757;SDS011;54562;47.620;18.786;2023-02-28T06:58:04;11.70;;;6.10;;
67757;SDS011;54562;47.620;18.786;2023-02-28T07:01:20;10.50;;;5.80;;
67757;SDS011;54562;47.620;18.786;2023-02-28T07:04:29;10.60;;;5.60;;
67757;SDS011;54562;47.620;18.786;2023-02-28T07:07:38;12.30;;;6.90;;
67757;SDS011;54562;47.620;18.786;2023-02-28T07:10:49;13.00;;;7.00;;
67757;SDS011;54562;47.620;18.786;2023-02-28T07:13:59;9.20;;;5.50;;
67757;SDS011;54562;47.620;18.786;2023-02-28T07:17:09;12.30;;;6.20;;
67757;SDS011;54562;47.620;18.786;2023-02-28T07:20:17;11.30;;;4.90;;
67757;SDS011;54562;47.620;18.786;2023-02-28T07:23:25;11.30;;;5.50;;
67757;SDS011;54562;47.620;18.786;2023-02-28T07:26:33;10.90;;;5.90;;
67757;SDS011;54562;47.620;18.786;2023-02-28T07:29:41;10.10;;;6.10;;
67757;SDS011;54562;47.620;18.786;2023-02-28T07:32:49;10.70;;;6.20;;
67757;SDS011;54562;47.620;18.786;2023-02-28T07:36:04;11.80;;;6.70;;
67757;SDS011;54562;47.620;18.786;2023-02-28T07:39:13;11.90;;;6.60;;
67757;SDS011;54562;47.620;18.786;2023-02-28T07:42:21;13.70;;;7.30;;
67757;SDS011;54562;47.620;18.786;2023-02-28T07:45:30;12.10;;;6.50;;
67757;SDS011;54562;47.620;18.786;2023-02-28T07:48:39;12.80;;;6.90;;
67757;SDS011;54562;47.620;18.786;2023-02-28T07:51:48;12.90;;;7.10;;
67757;SDS011;54562;47.620;18.786;2023-02-28T07:54:58;12.60;;;7.20;;
67757;SDS011;54562;47.620;18.786;2023-02-28T07:58:05;15.10;;;7.10;;
67757;SDS011;54562;47.620;18.786;2023-02-28T08:01:14;13.70;;;7.10;;
67757;SDS011;54562;47.620;18.786;2023-02-28T08:07:30;14.80;;;7.40;;
67757;SDS011;54562;47.620;18.786;2023-02-28T08:10:38;14.10;;;7.80;;
67757;SDS011;54562;47.620;18.786;2023-02-28T08:13:47;13.50;;;6.70;;
67757;SDS011;54562;47.620;18.786;2023-02-28T08:16:55;14.30;;;7.10;;
67757;SDS011;54562;47.620;18.786;2023-02-28T08:20:04;36.00;;;11.80;;
67757;SDS011;54562;47.620;18.786;2023-02-28T08:23:14;15.80;;;7.40;;
67757;SDS011;54562;47.620;18.786;2023-02-28T08:26:22;17.00;;;7.70;;
67757;SDS011;54562;47.620;18.786;2023-02-28T08:29:30;15.80;;;7.90;;
67757;SDS011;54562;47.620;18.786;2023-02-28T08:32:38;12.30;;;6.90;;
67757;SDS011;54562;47.620;18.786;2023-02-28T08:35:46;11.40;;;6.50;;
67757;SDS011;54562;47.620;18.786;2023-02-28T08:38:54;13.10;;;6.40;;
67757;SDS011;54562;47.620;18.786;2023-02-28T08:42:03;12.50;;;6.90;;
67757;SDS011;54562;47.620;18.786;2023-02-28T08:45:12;12.40;;;6.20;;
67757;SDS011;54562;47.620;18.786;2023-02-28T08:48:21;11.40;;;6.30;;
67757;SDS011;54562;47.620;18.786;2023-02-28T08:51:29;13.00;;;6.70;;
67757;SDS011;54562;47.620;18.786;2023-02-28T08:54:38;12.20;;;6.60;;
67757;SDS011;54562;47.620;18.786;2023-02-28T08:57:46;13.40;;;6.40;;
67757;SDS011;54562;47.620;18.786;2023-02-28T09:00:54;13.60;;;5.90;;
67757;SDS011;54562;47.620;18.786;2023-02-28T09:04:02;11.90;;;6.50;;
67757;SDS011;54562;47.620;18.786;2023-02-28T09:07:13;12.10;;;6.30;;
67757;SDS011;54562;47.620;18.786;2023-02-28T09:10:21;13.60;;;6.60;;
67757;SDS011;54562;47.620;18.786;2023-02-28T09:13:29;12.20;;;6.60;;
67757;SDS011;54562;47.620;18.786;2023-02-28T09:16:38;12.20;;;6.90;;
67757;SDS011;54562;47.620;18.786;2023-02-28T09:19:48;12.00;;;7.00;;
67757;SDS011;54562;47.620;18.786;2023-02-28T09:22:57;13.30;;;6.70;;
67757;SDS011;54562;47.620;18.786;2023-02-28T09:26:05;12.00;;;6.30;;
67757;SDS011;54562;47.620;18.786;2023-02-28T09:29:14;10.80;;;6.10;;
67757;SDS011;54562;47.620;18.786;2023-02-28T09:32:22;10.60;;;5.70;;
67757;SDS011;54562;47.620;18.786;2023-02-28T09:35:30;11.80;;;5.80;;
67757;SDS011;54562;47.620;18.786;2023-02-28T09:38:38;11.20;;;5.90;;
67757;SDS011;54562;47.620;18.786;2023-02-28T09:41:50;13.30;;;6.00;;
67757;SDS011;54562;47.620;18.786;2023-02-28T09:45:02;10.80;;;5.80;;
67757;SDS011;54562;47.620;18.786;2023-02-28T09:48:23;12.50;;;5.80;;
67757;SDS011;54562;47.620;18.786;2023-02-28T09:51:40;9.80;;;5.30;;
67757;SDS011;54562;47.620;18.786;2023-02-28T09:54:55;10.00;;;5.60;;
67757;SDS011;54562;47.620;18.786;2023-02-28T09:58:08;11.40;;;5.80;;
67757;SDS011;54562;47.620;18.786;2023-02-28T10:01:31;12.70;;;6.30;;
67757;SDS011;54562;47.620;18.786;2023-02-28T10:04:49;13.10;;;6.20;;
67757;SDS011;54562;47.620;18.786;2023-02-28T10:08:07;11.60;;;6.00;;
67757;SDS011;54562;47.620;18.786;2023-02-28T10:14:30;10.50;;;5.70;;
67757;SDS011;54562;47.620;18.786;2023-02-28T10:17:42;12.00;;;5.90;;
67757;SDS011;54562;47.620;18.786;2023-02-28T10:21:19;11.80;;;6.30;;
67757;SDS011;54562;47.620;18.786;2023-02-28T10:24:34;9.60;;;5.70;;
67757;SDS011;54562;47.620;18.786;2023-02-28T10:27:46;11.50;;;5.80;;
67757;SDS011;54562;47.620;18.786;2023-02-28T10:30:57;15.10;;;6.60;;
67757;SDS011;54562;47.620;18.786;2023-02-28T10:34:06;11.60;;;5.70;;
67757;SDS011;54562;47.620;18.786;2023-02-28T10:37:18;10.40;;;6.10;;
67757;SDS011;54562;47.620;18.786;2023-02-28T10:40:31;9.40;;;5.50;;
67757;SDS011;54562;47.620;18.786;2023-02-28T10:43:42;10.20;;;5.90;;
67757;SDS011;54562;47.620;18.786;2023-02-28T10:46:52;11.80;;;6.00;;
67757;SDS011;54562;47.620;18.786;2023-02-28T10:50:01;10.80;;;5.70;;
67757;SDS011;54562;47.620;18.786;2023-02-28T10:53:28;11.20;;;5.40;;
67757;SDS011;54562;47.620;18.786;2023-02-28T10:57:23;10.10;;;5.90;;
67757;SDS011;54562;47.620;18.786;2023-02-28T11:00:36;13.70;;;5.40;;
67757;SDS011;54562;47.620;18.786;2023-02-28T11:03:45;9.60;;;5.20;;
67757;SDS011;54562;47.620;18.786;2023-02-28T11:07:00;10.50;;;5.50;;
67757;SDS011;54562;47.620;18.786;2023-02-28T11:10:20;9.90;;;4.90;;
67757;SDS011;54562;47.620;18.786;2023-02-28T11:13:34;10.90;;;5.60;;
67757;SDS011;54562;47.620;18.786;2023-02-28T11:16:44;9.20;;;4.60;;
67757;SDS011;54562;47.620;18.786;2023-02-28T11:19:58;8.80;;;5.10;;
67757;SDS011;54562;47.620;18.786;2023-02-28T11:23:13;9.20;;;5.40;;
67757;SDS011;54562;47.620;18.786;2023-02-28T11:26:41;9.60;;;5.00;;
67757;SDS011;54562;47.620;18.786;2023-02-28T11:29:52;10.10;;;5.80;;
67757;SDS011;54562;47.620;18.786;2023-02-28T11:36:27;7.20;;;3.70;;
67757;SDS011;54562;47.620;18.786;2023-02-28T11:39:37;9.20;;;4.40;;
67757;SDS011;54562;47.620;18.786;2023-02-28T11:42:54;7.70;;;4.40;;
67757;SDS011;54562;47.620;18.786;2023-02-28T11:46:20;7.80;;;4.50;;
67757;SDS011;54562;47.620;18.786;2023-02-28T11:49:41;8.80;;;4.40;;
67757;SDS011;54562;47.620;18.786;2023-02-28T11:52:59;7.20;;;3.90;;
67757;SDS011;54562;47.620;18.786;2023-02-28T11:56:17;9.70;;;4.30;;
67757;SDS011;54562;47.620;18.786;2023-02-28T11:59:42;9.60;;;4.60;;
67757;SDS011;54562;47.620;18.786;2023-02-28T12:03:06;7.80;;;4.40;;
67757;SDS011;54562;47.620;18.786;2023-02-28T12:06:25;8.30;;;4.60;;
67757;SDS011;54562;47.620;18.786;2023-02-28T12:09:50;7.20;;;4.00;;
67757;SDS011;54562;47.620;18.786;2023-02-28T12:13:16;7.60;;;4.10;;
67757;SDS011;54562;47.620;18.786;2023-02-28T12:16:41;7.60;;;4.10;;
67757;SDS011;54562;47.620;18.786;2023-02-28T12:20:08;8.50;;;4.40;;
67757;SDS011;54562;47.620;18.786;2023-02-28T12:23:44;9.70;;;4.50;;
67757;SDS011;54562;47.620;18.786;2023-02-28T12:27:02;8.30;;;4.80;;
67757;SDS011;54562;47.620;18.786;2023-02-28T12:30:18;8.20;;;4.80;;
67757;SDS011;54562;47.620;18.786;2023-02-28T12:33:34;8.30;;;4.50;;
67757;SDS011;54562;47.620;18.786;2023-02-28T12:36:49;8.80;;;4.70;;
67757;SDS011;54562;47.620;18.786;2023-02-28T12:40:03;7.60;;;4.40;;
67757;SDS011;54562;47.620;18.786;2023-02-28T12:43:18;8.20;;;4.60;;
67757;SDS011;54562;47.620;18.786;2023-02-28T12:46:32;8.40;;;4.30;;
67757;SDS011;54562;47.620;18.786;2023-02-28T12:49:48;7.10;;;4.20;;
67757;SDS011;54562;47.620;18.786;2023-02-28T12:53:02;9.10;;;4.80;;
67757;SDS011;54562;47.620;18.786;2023-02-28T12:56:19;7.80;;;4.00;;
67757;SDS011;54562;47.620;18.786;2023-02-28T12:59:36;8.90;;;4.70;;
67757;SDS011;54562;47.620;18.786;2023-02-28T13:06:50;7.50;;;3.80;;
67757;SDS011;54562;47.620;18.786;2023-02-28T13:10:11;9.70;;;4.60;;
67757;SDS011;54562;47.620;18.786;2023-02-28T13:13:25;7.90;;;4.20;;
67757;SDS011;54562;47.620;18.786;2023-02-28T13:16:58;9.40;;;5.10;;
67757;SDS011;54562;47.620;18.786;2023-02-28T13:20:18;8.80;;;4.40;;
67757;SDS011;54562;47.620;18.786;2023-02-28T13:23:59;8.60;;;4.90;;
67757;SDS011;54562;47.620;18.786;2023-02-28T13:27:31;8.20;;;4.30;;
67757;SDS011;54562;47.620;18.786;2023-02-28T13:31:04;8.30;;;4.80;;
67757;SDS011;54562;47.620;18.786;2023-02-28T13:34:17;10.10;;;4.40;;
67757;SDS011;54562;47.620;18.786;2023-02-28T13:37:37;6.60;;;3.40;;
67757;SDS011;54562;47.620;18.786;2023-02-28T13:40:50;9.40;;;4.10;;
67757;SDS011;54562;47.620;18.786;2023-02-28T13:44:04;7.60;;;4.10;;
67757;SDS011;54562;47.620;18.786;2023-02-28T13:47:23;7.90;;;4.20;;
67757;SDS011;54562;47.620;18.786;2023-02-28T13:50:38;8.40;;;4.40;;
67757;SDS011;54562;47.620;18.786;2023-02-28T13:53:59;7.00;;;3.80;;
67757;SDS011;54562;47.620;18.786;2023-02-28T13:57:29;9.40;;;4.40;;
67757;SDS011;54562;47.620;18.786;2023-02-28T14:00:59;9.60;;;4.60;;
67757;SDS011;54562;47.620;18.786;2023-02-28T14:08:15;9.80;;;4.90;;
67757;SDS011;54562;47.620;18.786;2023-02-28T14:11:29;7.60;;;4.50;;
67757;SDS011;54562;47.620;18.786;2023-02-28T14:14:57;11.10;;;5.00;;
67757;SDS011;54562;47.620;18.786;2023-02-28T14:18:15;8.50;;;3.90;;
67757;SDS011;54562;47.620;18.786;2023-02-28T14:21:32;9.40;;;4.90;;
67757;SDS011;54562;47.620;18.786;2023-02-28T14:24:56;10.40;;;6.20;;
67757;SDS011;54562;47.620;18.786;2023-02-28T14:28:22;9.10;;;5.10;;
67757;SDS011;54562;47.620;18.786;2023-02-28T14:31:45;10.50;;;5.20;;
67757;SDS011;54562;47.620;18.786;2023-02-28T14:35:12;8.90;;;4.50;;
67757;SDS011;54562;47.620;18.786;2023-02-28T14:38:30;10.40;;;4.80;;
67757;SDS011;54562;47.620;18.786;2023-02-28T14:41:43;12.70;;;5.60;;
67757;SDS011;54562;47.620;18.786;2023-02-28T14:44:57;9.30;;;5.20;;
67757;SDS011;54562;47.620;18.786;2023-02-28T14:48:10;9.20;;;5.10;;
67757;SDS011;54562;47.620;18.786;2023-02-28T14:51:22;9.00;;;5.10;;
67757;SDS011;54562;47.620;18.786;2023-02-28T14:54:31;9.30;;;5.20;;
67757;SDS011;54562;47.620;18.786;2023-02-28T14:57:50;9.80;;;5.10;;
67757;SDS011;54562;47.620;18.786;2023-02-28T15:01:01;8.60;;;5.30;;
67757;SDS011;54562;47.620;18.786;2023-02-28T15:04:18;8.50;;;4.70;;
67757;SDS011;54562;47.620;18.786;2023-02-28T15:07:32;10.30;;;4.70;;
67757;SDS011;54562;47.620;18.786;2023-02-28T15:10:40;9.10;;;5.10;;
67757;SDS011;54562;47.620;18.786;2023-02-28T15:13:52;9.40;;;5.00;;
67757;SDS011;54562;47.620;18.786;2023-02-28T15:17:05;8.00;;;4.20;;
67757;SDS011;54562;47.620;18.786;2023-02-28T15:23:27;8.80;;;4.80;;
67757;SDS011;54562;47.620;18.786;2023-02-28T15:26:39;8.70;;;4.80;;
67757;SDS011;54562;47.620;18.786;2023-02-28T15:30:04;9.40;;;5.10;;
67757;SDS011;54562;47.620;18.786;2023-02-28T15:33:22;8.80;;;4.60;;
67757;SDS011;54562;47.620;18.786;2023-02-28T15:36:32;10.30;;;5.40;;
67757;SDS011;54562;47.620;18.786;2023-02-28T15:39:45;9.40;;;4.70;;
67757;SDS011;54562;47.620;18.786;2023-02-28T15:43:06;8.50;;;4.40;;
67757;SDS011;54562;47.620;18.786;2023-02-28T15:46:20;8.60;;;4.50;;
67757;SDS011;54562;47.620;18.786;2023-02-28T15:49:31;8.90;;;4.90;;
67757;SDS011;54562;47.620;18.786;2023-02-28T15:52:49;10.40;;;5.10;;
67757;SDS011;54562;47.620;18.786;2023-02-28T15:56:00;10.70;;;5.00;;
67757;SDS011;54562;47.620;18.786;2023-02-28T15:59:15;12.50;;;5.50;;
67757;SDS011;54562;47.620;18.786;2023-02-28T16:02:32;9.50;;;4.80;;
67757;SDS011;54562;47.620;18.786;2023-02-28T16:05:41;9.30;;;5.10;;
67757;SDS011;54562;47.620;18.786;2023-02-28T16:08:49;12.10;;;5.30;;
67757;SDS011;54562;47.620;18.786;2023-02-28T16:12:02;10.60;;;5.40;;
67757;SDS011;54562;47.620;18.786;2023-02-28T16:15:19;11.40;;;5.10;;
67757;SDS011;54562;47.620;18.786;2023-02-28T16:18:29;10.80;;;5.50;;
67757;SDS011;54562;47.620;18.786;2023-02-28T16:21:37;10.00;;;5.30;;
67757;SDS011;54562;47.620;18.786;2023-02-28T16:24:45;9.80;;;5.20;;
67757;SDS011;54562;47.620;18.786;2023-02-28T16:27:56;11.80;;;5.00;;
67757;SDS011;54562;47.620;18.786;2023-02-28T16:31:06;12.40;;;5.50;;
67757;SDS011;54562;47.620;18.786;2023-02-28T16:34:21;10.20;;;5.50;;
67757;SDS011;54562;47.620;18.786;2023-02-28T16:37:31;10.10;;;5.20;;
67757;SDS011;54562;47.620;18.786;2023-02-28T16:40:39;13.30;;;5.60;;
67757;SDS011;54562;47.620;18.786;2023-02-28T16:43:48;10.30;;;5.30;;
67757;SDS011;54562;47.620;18.786;2023-02-28T16:47:04;10.10;;;5.40;;
67757;SDS011;54562;47.620;18.786;2023-02-28T16:50:16;9.40;;;5.20;;
67757;SDS011;54562;47.620;18.786;2023-02-28T16:53:26;10.30;;;5.50;;
67757;SDS011;54562;47.620;18.786;2023-02-28T16:56:35;9.70;;;5.00;;
67757;SDS011;54562;47.620;18.786;2023-02-28T16:59:46;8.10;;;4.90;;
67757;SDS011;54562;47.620;18.786;2023-02-28T17:02:56;11.00;;;5.50;;
67757;SDS011;54562;47.620;18.786;2023-02-28T17:06:05;12.10;;;5.40;;
67757;SDS011;54562;47.620;18.786;2023-02-28T17:09:21;11.90;;;5.70;;
67757;SDS011;54562;47.620;18.786;2023-02-28T17:12:48;10.60;;;5.70;;
67757;SDS011;54562;47.620;18.786;2023-02-28T17:16:09;10.40;;;5.40;;
67757;SDS011;54562;47.620;18.786;2023-02-28T17:19:24;10.30;;;5.40;;
67757;SDS011;54562;47.620;18.786;2023-02-28T17:22:33;11.20;;;5.70;;
67757;SDS011;54562;47.620;18.786;2023-02-28T17:25:41;12.10;;;6.00;;
67757;SDS011;54562;47.620;18.786;2023-02-28T17:29:01;9.20;;;5.40;;
67757;SDS011;54562;47.620;18.786;2023-02-28T17:32:12;10.70;;;5.90;;
67757;SDS011;54562;47.620;18.786;2023-02-28T17:35:22;10.90;;;5.40;;
67757;SDS011;54562;47.620;18.786;2023-02-28T17:38:31;11.30;;;6.30;;
67757;SDS011;54562;47.620;18.786;2023-02-28T17:41:40;11.00;;;5.80;;
67757;SDS011;54562;47.620;18.786;2023-02-28T17:44:48;11.70;;;5.70;;
67757;SDS011;54562;47.620;18.786;2023-02-28T17:47:57;12.00;;;5.70;;
67757;SDS011;54562;47.620;18.786;2023-02-28T17:51:06;13.00;;;6.20;;
67757;SDS011;54562;47.620;18.786;2023-02-28T17:54:14;12.70;;;5.70;;
67757;SDS011;54562;47.620;18.786;2023-02-28T17:57:23;11.70;;;6.00;;
67757;SDS011;54562;47.620;18.786;2023-02-28T18:00:31;11.90;;;6.10;;
67757;SDS011;54562;47.620;18.786;2023-02-28T18:03:39;12.10;;;6.10;;
67757;SDS011;54562;47.620;18.786;2023-02-28T18:06:48;12.20;;;6.40;;
67757;SDS011;54562;47.620;18.786;2023-02-28T18:09:57;15.30;;;6.70;;
67757;SDS011;54562;47.620;18.786;2023-02-28T18:13:05;13.90;;;6.50;;
67757;SDS011;54562;47.620;18.786;2023-02-28T18:16:13;10.40;;;5.80;;
67757;SDS011;54562;47.620;18.786;2023-02-28T18:19:23;12.10;;;5.80;;
67757;SDS011;54562;47.620;18.786;2023-02-28T18:22:31;13.00;;;6.10;;
67757;SDS011;54562;47.620;18.786;2023-02-28T18:25:41;11.90;;;6.30;;
67757;SDS011;54562;47.620;18.786;2023-02-28T18:28:50;12.30;;;6.10;;
67757;SDS011;54562;47.620;18.786;2023-02-28T18:31:58;12.40;;;6.30;;
67757;SDS011;54562;47.620;18.786;2023-02-28T18:35:09;13.10;;;7.00;;
67757;SDS011;54562;47.620;18.786;2023-02-28T18:38:18;14.50;;;6.90;;
67757;SDS011;54562;47.620;18.786;2023-02-28T18:41:26;14.80;;;6.80;;
67757;SDS011;54562;47.620;18.786;2023-02-28T18:44:35;12.00;;;5.40;;
67757;SDS011;54562;47.620;18.786;2023-02-28T18:47:43;14.20;;;7.10;;
67757;SDS011;54562;47.620;18.786;2023-02-28T18:50:52;13.20;;;7.20;;
67757;SDS011;54562;47.620;18.786;2023-02-28T18:54:00;14.20;;;7.40;;
67757;SDS011;54562;47.620;18.786;2023-02-28T18:57:09;14.40;;;7.30;;
67757;SDS011;54562;47.620;18.786;2023-02-28T19:00:18;15.70;;;7.60;;
67757;SDS011;54562;47.620;18.786;2023-02-28T19:03:30;15.00;;;8.20;;
67757;SDS011;54562;47.620;18.786;2023-02-28T19:06:38;22.60;;;12.50;;
67757;SDS011;54562;47.620;18.786;2023-02-28T19:09:47;20.70;;;12.10;;
67757;SDS011;54562;47.620;18.786;2023-02-28T19:12:56;18.10;;;9.10;;
67757;SDS011;54562;47.620;18.786;2023-02-28T19:16:06;15.70;;;9.10;;
67757;SDS011;54562;47.620;18.786;2023-02-28T19:19:15;15.80;;;8.80;;
67757;SDS011;54562;47.620;18.786;2023-02-28T19:22:23;15.70;;;8.90;;
67757;SDS011;54562;47.620;18.786;2023-02-28T19:25:32;15.80;;;8.30;;